createdAt,value
2019-03-01T00:01:48.090Z,5.12
2019-03-01T00:04:17.961Z,5.15
2019-03-01T00:07:21.622Z,5.18
2019-03-01T00:12:40.472Z,5.13
2019-03-01T00:15:22.369Z,5.18
2019-03-01T00:18:04.030Z,5.19
2019-03-01T00:21:00.711Z,5.17
2019-03-01T00:23:54.990Z,5.16
2019-03-01T00:26:33.897Z,5.11
2019-03-01T00:29:33.048Z,5.13
2019-03-01T00:32:26.729Z,5.10
2019-03-01T00:35:05.337Z,5.06
2019-03-01T00:37:59.978Z,5.09
2019-03-01T00:40:44.325Z,5.09
2019-03-01T00:43:43.100Z,5.11
2019-03-01T00:46:09.144Z,5.06
2019-03-01T00:48:35.274Z,5.11
2019-03-01T00:51:01.353Z,5.17
2019-03-01T00:53:28.869Z,5.09
2019-03-01T00:55:54.951Z,5.16
2019-03-01T00:58:21.166Z,5.11
2019-03-01T01:00:47.216Z,5.10
2019-03-01T01:03:13.261Z,5.13
2019-03-01T01:05:39.351Z,5.08
2019-03-01T01:08:05.474Z,5.10
2019-03-01T01:10:31.668Z,5.08
2019-03-01T01:12:57.769Z,5.06
2019-03-01T01:15:23.822Z,5.15
2019-03-01T01:17:49.970Z,5.18
2019-03-01T01:20:16.075Z,5.17
2019-03-01T01:22:42.063Z,5.12
2019-03-01T01:25:12.414Z,5.10
2019-03-01T01:27:38.422Z,5.03
2019-03-01T01:30:10.866Z,5.04
2019-03-01T01:32:36.958Z,5.06
2019-03-01T01:35:04.021Z,5.02
2019-03-01T01:37:30.029Z,5.06
2019-03-01T01:39:56.111Z,5.10
2019-03-01T01:42:22.206Z,5.09
2019-03-01T01:44:48.235Z,5.04
2019-03-01T01:47:14.289Z,4.98
2019-03-01T01:49:40.626Z,5.00
2019-03-01T01:52:06.674Z,5.13
2019-03-01T01:54:32.700Z,5.05
2019-03-01T01:56:58.718Z,5.06
2019-03-01T01:59:24.757Z,5.13
2019-03-01T02:01:50.787Z,5.07
2019-03-01T02:04:16.821Z,5.07
2019-03-01T02:06:42.924Z,5.10
2019-03-01T02:09:17.457Z,5.09
2019-03-01T02:11:43.489Z,5.03
2019-03-01T02:14:09.774Z,5.08
2019-03-01T02:16:55.679Z,5.25
2019-03-01T02:19:21.790Z,5.15
2019-03-01T02:21:47.812Z,4.82
2019-03-01T02:24:13.858Z,4.89
2019-03-01T02:26:39.958Z,5.07
2019-03-01T02:29:06.004Z,5.08
2019-03-01T02:31:32.045Z,4.79
2019-03-01T02:33:58.109Z,4.91
2019-03-01T02:36:24.188Z,4.72
2019-03-01T02:38:50.195Z,4.92
2019-03-01T02:41:18.322Z,4.76
2019-03-01T02:43:44.483Z,4.89
2019-03-01T02:46:10.632Z,4.98
2019-03-01T02:48:36.629Z,4.98
2019-03-01T02:51:02.715Z,5.01
2019-03-01T02:53:29.814Z,5.09
2019-03-01T02:55:55.940Z,5.04
2019-03-01T02:58:22.126Z,5.11
2019-03-01T03:00:48.190Z,5.11
2019-03-01T03:03:14.238Z,5.08
2019-03-01T03:05:45.069Z,5.04
2019-03-01T03:08:11.419Z,5.01
2019-03-01T03:10:37.469Z,5.05
2019-03-01T03:13:05.454Z,5.05
2019-03-01T03:15:46.188Z,4.97
2019-03-01T03:18:12.309Z,5.02
2019-03-01T03:20:38.327Z,4.93
2019-03-01T03:23:06.341Z,4.94
2019-03-01T03:25:32.386Z,4.96
2019-03-01T03:27:58.412Z,4.96
2019-03-01T03:30:24.547Z,4.93
2019-03-01T03:32:50.690Z,4.92
2019-03-01T03:35:16.721Z,4.90
2019-03-01T03:37:43.089Z,4.94
2019-03-01T03:40:10.821Z,4.94
2019-03-01T03:42:37.154Z,4.92
2019-03-01T03:45:06.838Z,4.97
2019-03-01T03:47:32.918Z,4.95
2019-03-01T03:50:00.184Z,4.90
2019-03-01T03:52:26.767Z,4.81
2019-03-01T03:54:52.910Z,4.80
2019-03-01T03:57:18.967Z,4.81
2019-03-01T03:59:45.071Z,4.87
2019-03-01T04:02:11.111Z,4.83
2019-03-01T04:04:37.135Z,4.83
2019-03-01T04:07:03.569Z,4.90
2019-03-01T04:09:29.577Z,4.92
2019-03-01T04:11:55.616Z,4.83
2019-03-01T04:14:21.723Z,4.82
2019-03-01T04:16:47.883Z,4.84
2019-03-01T04:19:13.908Z,4.90
2019-03-01T04:21:40.129Z,4.92
2019-03-01T04:24:06.189Z,4.79
2019-03-01T04:26:32.250Z,4.79
2019-03-01T04:28:58.596Z,6.68
2019-03-01T04:31:24.723Z,6.84
2019-03-01T04:33:50.789Z,6.31
2019-03-01T04:36:16.935Z,5.71
2019-03-01T04:38:43.002Z,5.39
2019-03-01T04:41:09.124Z,5.22
2019-03-01T04:43:35.248Z,5.12
2019-03-01T04:46:01.284Z,4.95
2019-03-01T04:48:27.337Z,4.88
2019-03-01T04:50:53.420Z,4.79
2019-03-01T04:53:20.609Z,4.83
2019-03-01T04:55:46.719Z,4.93
2019-03-01T04:58:12.759Z,5.02
2019-03-01T05:00:38.797Z,4.97
2019-03-01T05:03:04.922Z,4.94
2019-03-01T05:05:31.102Z,4.94
2019-03-01T05:07:57.288Z,4.81
2019-03-01T05:10:23.594Z,4.86
2019-03-01T05:12:49.710Z,4.77
2019-03-01T05:15:19.174Z,4.78
2019-03-01T05:17:45.318Z,4.92
2019-03-01T05:20:11.910Z,4.88
2019-03-01T05:22:37.966Z,4.93
2019-03-01T05:25:25.920Z,5.01
2019-03-01T05:27:52.116Z,4.93
2019-03-01T05:30:18.272Z,4.92
2019-03-01T05:32:44.440Z,5.04
2019-03-01T05:35:10.992Z,5.01
2019-03-01T05:37:37.120Z,4.97
2019-03-01T05:40:09.446Z,5.01
2019-03-01T05:42:35.670Z,5.00
2019-03-01T05:45:02.813Z,4.96
2019-03-01T05:47:28.959Z,4.95
2019-03-01T05:49:55.076Z,5.01
2019-03-01T05:52:22.366Z,4.92
2019-03-01T05:54:48.484Z,4.89
2019-03-01T05:57:14.597Z,4.95
2019-03-01T05:59:40.637Z,4.92
2019-03-01T06:02:10.470Z,4.97
2019-03-01T06:04:40.637Z,5.02
2019-03-01T06:07:27.149Z,4.97
2019-03-01T06:10:12.427Z,4.96
2019-03-01T06:12:54.432Z,4.94
2019-03-01T06:15:46.992Z,4.94
2019-03-01T06:18:50.391Z,4.88
2019-03-01T06:21:48.045Z,4.89
2019-03-01T06:24:36.338Z,4.89
2019-03-01T06:27:16.355Z,4.91
2019-03-01T06:30:07.109Z,4.94
2019-03-01T06:32:56.621Z,4.83
2019-03-01T06:35:29.685Z,4.89
2019-03-01T06:38:27.450Z,4.92
2019-03-01T06:41:23.132Z,4.87
2019-03-01T06:44:11.355Z,4.83
2019-03-01T06:46:52.254Z,4.79
2019-03-01T06:49:20.417Z,4.80
2019-03-01T06:51:46.554Z,4.87
2019-03-01T06:54:12.595Z,4.89
2019-03-01T06:56:38.749Z,4.81
2019-03-01T06:59:04.758Z,4.79
2019-03-01T07:01:31.670Z,4.84
2019-03-01T07:03:59.723Z,4.79
2019-03-01T07:06:25.846Z,4.79
2019-03-01T07:08:52.272Z,4.79
2019-03-01T07:11:18.318Z,4.80
2019-03-01T07:13:44.382Z,4.80
2019-03-01T07:16:10.431Z,4.87
2019-03-01T07:18:36.545Z,4.88
2019-03-01T07:21:02.660Z,5.00
2019-03-01T07:23:36.580Z,4.94
2019-03-01T07:25:56.800Z,4.92
2019-03-01T07:28:23.222Z,4.93
2019-03-01T07:30:49.288Z,4.82
2019-03-01T07:33:15.324Z,4.80
2019-03-01T07:35:41.483Z,4.78
2019-03-01T07:38:07.536Z,4.90
2019-03-01T07:40:33.595Z,4.84
2019-03-01T07:42:59.646Z,4.74
2019-03-01T07:45:25.814Z,4.77
2019-03-01T07:47:53.044Z,4.81
2019-03-01T07:50:19.057Z,4.75
2019-03-01T07:52:45.232Z,4.73
2019-03-01T07:55:11.379Z,4.78
2019-03-01T07:57:37.539Z,4.89
2019-03-01T08:00:15.294Z,4.71
2019-03-01T08:02:41.466Z,4.79
2019-03-01T08:05:14.390Z,4.77
2019-03-01T08:07:41.204Z,4.72
2019-03-01T08:10:09.950Z,4.80
2019-03-01T08:12:38.666Z,4.76
2019-03-01T08:15:09.552Z,4.69
2019-03-01T08:17:36.351Z,4.82
2019-03-01T08:20:05.618Z,4.73
2019-03-01T08:22:31.673Z,4.77
2019-03-01T08:24:57.913Z,4.73
2019-03-01T08:27:25.276Z,4.74
2019-03-01T08:29:51.623Z,4.78
2019-03-01T08:32:17.852Z,4.72
2019-03-01T08:34:43.964Z,4.54
2019-03-01T08:37:10.483Z,4.64
2019-03-01T08:39:39.369Z,4.61
2019-03-01T08:42:04.479Z,4.60
2019-03-01T08:44:30.653Z,4.58
2019-03-01T08:46:56.749Z,4.71
2019-03-01T08:49:23.532Z,4.71
2019-03-01T08:51:49.870Z,4.73
2019-03-01T08:54:16.114Z,4.71
2019-03-01T08:56:42.427Z,4.75
2019-03-01T08:59:08.476Z,4.75
2019-03-01T09:01:34.610Z,4.79
2019-03-01T09:04:04.536Z,4.84
2019-03-01T09:06:30.761Z,4.80
2019-03-01T09:08:56.874Z,4.92
2019-03-01T09:11:22.914Z,4.90
2019-03-01T09:13:49.014Z,4.82
2019-03-01T09:16:15.251Z,4.94
2019-03-01T09:18:41.469Z,4.72
2019-03-01T09:21:12.377Z,4.75
2019-03-01T09:23:35.644Z,4.75
2019-03-01T09:26:01.800Z,4.74
2019-03-01T09:28:28.031Z,4.87
2019-03-01T09:30:54.478Z,4.83
2019-03-01T09:33:21.234Z,4.81
2019-03-01T09:39:23.723Z,4.65
2019-03-01T09:41:49.829Z,4.79
2019-03-01T09:44:15.868Z,4.91
2019-03-01T09:46:41.983Z,5.07
2019-03-01T09:49:08.100Z,5.05
2019-03-01T09:51:34.662Z,4.97
2019-03-01T09:54:00.975Z,4.87
2019-03-01T09:56:27.147Z,4.77
2019-03-01T09:58:53.742Z,4.90
2019-03-01T10:01:20.449Z,4.94
2019-03-01T10:03:47.747Z,5.10
2019-03-01T10:06:13.828Z,5.04
2019-03-01T10:08:40.318Z,5.13
2019-03-01T10:11:06.339Z,4.94
2019-03-01T10:15:58.908Z,4.95
2019-03-01T10:18:25.061Z,5.03
2019-03-01T10:20:51.306Z,4.88
2019-03-01T10:23:17.789Z,4.95
2019-03-01T10:25:43.895Z,5.02
2019-03-01T10:28:10.135Z,4.93
2019-03-01T10:30:36.320Z,5.15
2019-03-01T10:33:03.853Z,5.47
2019-03-01T10:35:30.286Z,5.34
2019-03-01T10:37:56.335Z,5.51
2019-03-01T10:40:26.606Z,5.76
2019-03-01T10:42:53.073Z,5.75
2019-03-01T10:45:29.440Z,5.74
2019-03-01T10:47:55.604Z,5.55
2019-03-01T10:50:21.714Z,5.67
2019-03-01T10:52:50.860Z,5.53
2019-03-01T10:55:20.100Z,5.84
2019-03-01T10:57:47.000Z,6.00
2019-03-01T11:00:27.408Z,5.81
2019-03-01T11:02:54.788Z,5.74
2019-03-01T11:05:21.432Z,5.80
2019-03-01T11:07:48.946Z,5.71
2019-03-01T11:10:27.646Z,5.56
2019-03-01T11:12:53.665Z,5.63
2019-03-01T11:15:19.790Z,5.74
2019-03-01T11:17:45.950Z,5.63
2019-03-01T11:20:14.778Z,6.00
2019-03-01T11:22:40.914Z,6.07
2019-03-01T11:25:12.049Z,6.08
2019-03-01T11:27:38.136Z,5.94
2019-03-01T11:30:08.090Z,5.96
2019-03-01T11:32:34.225Z,5.93
2019-03-01T11:35:00.310Z,6.28
2019-03-01T11:37:26.389Z,6.19
2019-03-01T11:39:52.446Z,6.05
2019-03-01T11:42:18.477Z,6.16
2019-03-01T11:44:44.879Z,5.97
2019-03-01T11:47:11.807Z,5.93
2019-03-01T11:49:38.271Z,5.84
2019-03-01T11:52:06.336Z,5.89
2019-03-01T11:54:35.452Z,5.95
2019-03-01T11:57:01.888Z,5.89
2019-03-01T11:59:28.120Z,5.89
2019-03-01T12:01:54.484Z,6.05
2019-03-01T12:04:20.619Z,5.97
2019-03-01T12:06:46.671Z,6.08
2019-03-01T12:09:12.787Z,6.27
2019-03-01T12:11:39.221Z,6.88
2019-03-01T12:14:06.699Z,6.56
2019-03-01T12:16:32.991Z,6.14
2019-03-01T12:19:01.382Z,6.19
2019-03-01T12:21:27.586Z,5.92
2019-03-01T12:23:53.805Z,5.92
2019-03-01T12:26:19.997Z,5.91
2019-03-01T12:28:46.097Z,5.91
2019-03-01T12:31:12.645Z,6.00
2019-03-01T12:33:39.035Z,6.27
2019-03-01T12:36:05.243Z,6.21
2019-03-01T12:38:31.305Z,6.11
2019-03-01T12:40:57.438Z,6.12
2019-03-01T12:43:23.474Z,6.00
2019-03-01T12:45:49.501Z,6.05
2019-03-01T12:48:15.535Z,5.96
2019-03-01T12:50:46.365Z,5.96
2019-03-01T12:53:12.989Z,6.06
2019-03-01T12:55:39.159Z,6.36
2019-03-01T12:58:05.391Z,6.75
2019-03-01T13:00:32.908Z,6.84
2019-03-01T13:02:59.183Z,6.51
2019-03-01T13:05:29.074Z,6.50
2019-03-01T13:07:54.478Z,6.36
2019-03-01T13:10:25.887Z,6.39
2019-03-01T13:12:51.946Z,6.64
2019-03-01T13:15:18.320Z,6.56
2019-03-01T13:17:44.704Z,6.53
2019-03-01T13:20:13.488Z,6.70
2019-03-01T13:22:39.786Z,6.39
2019-03-01T13:25:08.087Z,6.56
2019-03-01T13:27:34.206Z,6.46
2019-03-01T13:30:00.564Z,6.29
2019-03-01T13:32:26.760Z,6.35
2019-03-01T13:34:52.938Z,6.28
2019-03-01T13:37:20.340Z,6.38
2019-03-01T13:39:48.679Z,6.27
2019-03-01T13:42:14.850Z,6.29
2019-03-01T13:44:41.017Z,6.31
2019-03-01T13:47:08.674Z,6.45
2019-03-01T13:49:35.323Z,6.50
2019-03-01T13:52:02.781Z,6.34
2019-03-01T13:54:29.111Z,6.27
2019-03-01T13:56:55.229Z,6.40
2019-03-01T13:59:21.357Z,6.29
2019-03-01T14:01:47.786Z,6.41
2019-03-01T14:04:13.946Z,6.46
2019-03-01T14:06:40.027Z,6.50
2019-03-01T14:09:10.052Z,6.65
2019-03-01T14:11:36.271Z,6.46
2019-03-01T14:14:02.801Z,6.72
2019-03-01T14:16:29.343Z,6.97
2019-03-01T14:18:55.906Z,7.52
2019-03-01T14:21:22.094Z,7.37
2019-03-01T14:23:49.881Z,7.30
2019-03-01T14:26:18.659Z,7.41
2019-03-01T14:28:44.334Z,7.55
2019-03-01T14:31:12.179Z,7.63
2019-03-01T14:33:38.421Z,7.79
2019-03-01T14:36:04.573Z,7.55
2019-03-01T14:38:31.023Z,7.55
2019-03-01T14:40:59.629Z,7.62
2019-03-01T14:43:25.322Z,7.58
2019-03-01T14:45:51.451Z,7.43
2019-03-01T14:48:17.530Z,7.52
2019-03-01T14:50:45.006Z,7.46
2019-03-01T14:53:11.389Z,7.01
2019-03-01T14:55:46.988Z,6.85
2019-03-01T14:58:31.915Z,6.71
2019-03-01T15:01:13.316Z,6.73
2019-03-01T15:03:39.440Z,6.72
2019-03-01T15:06:06.315Z,6.57
2019-03-01T15:08:32.736Z,6.57
2019-03-01T15:11:04.350Z,6.46
2019-03-01T15:13:31.446Z,6.40
2019-03-01T15:15:57.375Z,6.35
2019-03-01T15:18:25.029Z,6.66
2019-03-01T15:20:51.240Z,6.58
2019-03-01T15:23:17.273Z,6.27
2019-03-01T15:25:47.293Z,6.29
2019-03-01T15:28:13.251Z,6.53
2019-03-01T15:30:42.571Z,6.40
2019-03-01T15:33:08.528Z,6.46
2019-03-01T15:35:36.301Z,6.69
2019-03-01T15:38:03.733Z,6.56
2019-03-01T15:40:31.366Z,6.38
2019-03-01T15:42:58.131Z,6.44
2019-03-01T15:45:24.160Z,6.70
2019-03-01T15:47:50.515Z,6.57
2019-03-01T15:50:16.840Z,6.66
2019-03-01T15:52:45.655Z,6.67
2019-03-01T15:55:12.009Z,6.58
2019-03-01T15:57:39.068Z,6.81
2019-03-01T16:00:15.046Z,7.11
2019-03-01T16:02:41.455Z,7.11
2019-03-01T16:05:11.985Z,7.02
2019-03-01T16:07:38.178Z,7.04
2019-03-01T16:10:10.028Z,7.52
2019-03-01T16:12:37.401Z,6.81
2019-03-01T16:15:07.262Z,6.38
2019-03-01T16:17:33.338Z,6.28
2019-03-01T16:19:59.421Z,6.13
2019-03-01T16:22:38.873Z,6.10
2019-03-01T16:25:08.175Z,6.04
2019-03-01T16:27:34.688Z,6.00
2019-03-01T16:30:05.065Z,6.00
2019-03-01T16:32:31.362Z,6.07
2019-03-01T16:34:58.613Z,5.92
2019-03-01T16:37:25.969Z,5.92
2019-03-01T16:39:56.158Z,5.85
2019-03-01T16:42:20.653Z,5.83
2019-03-01T16:44:46.703Z,5.86
2019-03-01T16:47:12.829Z,5.94
2019-03-01T16:49:39.019Z,6.65
2019-03-01T16:52:05.160Z,6.07
2019-03-01T16:54:31.676Z,5.93
2019-03-01T16:56:57.918Z,5.96
2019-03-01T16:59:24.110Z,5.86
2019-03-01T17:01:50.167Z,6.01
2019-03-01T17:04:16.350Z,7.28
2019-03-01T17:06:45.405Z,6.53
2019-03-01T17:09:11.762Z,6.39
2019-03-01T17:11:41.500Z,6.31
2019-03-01T17:14:08.477Z,6.12
2019-03-01T17:16:34.643Z,5.79
2019-03-01T17:19:00.803Z,5.67
2019-03-01T17:21:26.829Z,5.64
2019-03-01T17:23:54.653Z,5.66
2019-03-01T17:26:29.978Z,5.63
2019-03-01T17:28:55.187Z,5.54
2019-03-01T17:31:23.220Z,5.46
2019-03-01T17:33:50.059Z,5.45
2019-03-01T17:36:16.784Z,5.37
2019-03-01T17:38:46.071Z,5.49
2019-03-01T17:41:12.042Z,5.47
2019-03-01T17:43:38.089Z,5.46
2019-03-01T17:46:04.130Z,5.47
2019-03-01T17:48:30.182Z,5.53
2019-03-01T17:50:56.345Z,5.93
2019-03-01T17:53:22.692Z,5.81
2019-03-01T17:55:48.838Z,5.76
2019-03-01T17:58:14.930Z,5.84
2019-03-01T18:00:45.154Z,6.00
2019-03-01T18:03:11.383Z,6.07
2019-03-01T18:05:40.696Z,5.94
2019-03-01T18:08:05.487Z,6.17
2019-03-01T18:10:33.049Z,6.27
2019-03-01T18:12:59.266Z,6.20
2019-03-01T18:15:25.619Z,6.26
2019-03-01T18:17:52.430Z,6.11
2019-03-01T18:20:18.661Z,6.00
2019-03-01T18:22:45.980Z,5.99
2019-03-01T18:25:13.793Z,5.91
2019-03-01T18:27:40.088Z,5.99
2019-03-01T18:30:16.072Z,6.11
2019-03-01T18:32:41.760Z,5.94
2019-03-01T18:35:11.603Z,5.74
2019-03-01T18:37:38.614Z,5.78
2019-03-01T18:40:08.093Z,5.94
2019-03-01T18:42:38.072Z,5.89
2019-03-01T18:45:07.146Z,5.95
2019-03-01T18:47:35.138Z,5.91
2019-03-01T18:50:01.477Z,5.94
2019-03-01T18:52:27.862Z,6.10
2019-03-01T18:54:54.133Z,6.17
2019-03-01T18:57:20.377Z,6.05
2019-03-01T18:59:46.806Z,5.77
2019-03-01T19:02:16.514Z,5.67
2019-03-01T19:04:44.580Z,5.54
2019-03-01T19:07:11.138Z,5.41
2019-03-01T19:09:37.282Z,5.35
2019-03-01T19:12:03.509Z,5.38
2019-03-01T19:14:29.851Z,5.22
2019-03-01T19:16:55.970Z,5.30
2019-03-01T19:19:24.440Z,5.28
2019-03-01T19:21:52.660Z,5.36
2019-03-01T19:24:18.101Z,5.36
2019-03-01T19:26:44.489Z,5.27
2019-03-01T19:29:11.030Z,5.13
2019-03-01T19:31:37.175Z,4.96
2019-03-01T19:34:03.348Z,4.91
2019-03-01T19:36:29.493Z,5.55
2019-03-01T19:38:56.826Z,5.56
2019-03-01T19:41:23.907Z,5.56
2019-03-01T19:43:54.928Z,5.56
2019-03-01T19:46:20.157Z,5.54
2019-03-01T19:48:46.457Z,5.89
2019-03-01T19:51:12.582Z,5.68
2019-03-01T19:53:38.708Z,5.40
2019-03-01T19:56:04.919Z,5.46
2019-03-01T19:58:31.090Z,5.20
2019-03-01T20:00:57.376Z,5.26
2019-03-01T20:03:23.553Z,5.38
2019-03-01T20:05:50.731Z,5.43
2019-03-01T20:08:16.773Z,5.57
2019-03-01T20:10:42.903Z,5.27
2019-03-01T20:13:09.033Z,5.25
2019-03-01T20:15:35.157Z,5.37
2019-03-01T20:18:01.331Z,5.25
2019-03-01T20:20:29.987Z,5.16
2019-03-01T20:22:56.116Z,5.06
2019-03-01T20:25:22.295Z,5.07
2019-03-01T20:27:48.344Z,5.00
2019-03-01T20:30:30.651Z,5.05
2019-03-01T20:32:57.066Z,5.00
2019-03-01T20:35:25.687Z,4.87
2019-03-01T20:37:52.222Z,4.93
2019-03-01T20:40:18.520Z,5.01
2019-03-01T20:42:45.395Z,4.96
2019-03-01T20:45:25.903Z,4.95
2019-03-01T20:47:53.532Z,4.92
2019-03-01T20:50:19.748Z,4.84
2019-03-01T20:52:46.214Z,4.79
2019-03-01T20:55:12.718Z,4.86
2019-03-01T20:57:38.883Z,4.78
2019-03-01T21:00:08.633Z,4.73
2019-03-01T21:02:35.123Z,4.69
2019-03-01T21:05:01.219Z,4.64
2019-03-01T21:07:27.271Z,4.47
2019-03-01T21:09:53.734Z,4.41
2019-03-01T21:12:20.085Z,4.41
2019-03-01T21:14:46.108Z,4.47
2019-03-01T21:17:16.717Z,4.33
2019-03-01T21:19:43.737Z,4.37
2019-03-01T21:22:11.205Z,4.28
2019-03-01T21:24:37.296Z,4.12
2019-03-01T21:27:03.788Z,4.16
2019-03-01T21:29:30.020Z,3.92
2019-03-01T21:31:56.575Z,3.91
2019-03-01T21:34:29.279Z,3.85
2019-03-01T21:36:55.405Z,3.91
2019-03-01T21:39:24.090Z,3.78
2019-03-01T21:41:51.321Z,3.71
2019-03-01T21:44:17.659Z,3.72
2019-03-01T21:46:44.416Z,3.70
2019-03-01T21:49:10.805Z,3.62
2019-03-01T21:51:37.255Z,3.61
2019-03-01T21:54:04.415Z,3.60
2019-03-01T21:56:34.753Z,3.50
2019-03-01T21:58:58.816Z,3.43
2019-03-01T22:01:24.936Z,3.47
2019-03-01T22:03:51.165Z,3.52
2019-03-01T22:06:20.650Z,3.54
2019-03-01T22:08:48.610Z,3.50
2019-03-01T22:11:14.490Z,3.58
2019-03-01T22:13:42.820Z,3.44
2019-03-01T22:16:09.417Z,3.52
2019-03-01T22:18:36.339Z,3.54
2019-03-01T22:21:02.714Z,3.61
2019-03-01T22:23:30.826Z,3.53
2019-03-01T22:25:58.246Z,3.59
2019-03-01T22:28:24.577Z,3.47
2019-03-01T22:30:50.836Z,3.48
2019-03-01T22:33:17.423Z,3.57
2019-03-01T22:35:47.597Z,3.58
2019-03-01T22:38:13.761Z,3.65
2019-03-01T22:40:40.395Z,3.69
2019-03-01T22:43:08.710Z,3.62
2019-03-01T22:45:35.446Z,3.72
2019-03-01T22:48:01.696Z,3.72
2019-03-01T22:50:27.926Z,3.55
2019-03-01T22:52:54.157Z,3.48
2019-03-01T22:55:20.674Z,3.38
2019-03-01T22:57:46.888Z,3.52
2019-03-01T23:00:46.944Z,3.48
2019-03-01T23:03:15.315Z,3.68
2019-03-01T23:05:43.056Z,3.71
2019-03-01T23:08:09.170Z,3.69
2019-03-01T23:10:35.346Z,3.69
2019-03-01T23:13:01.457Z,3.62
2019-03-01T23:15:27.970Z,3.61
2019-03-01T23:17:54.030Z,3.50
2019-03-01T23:20:26.249Z,3.43
2019-03-01T23:22:48.465Z,3.52
2019-03-01T23:25:14.695Z,3.50
2019-03-01T23:27:41.552Z,3.48
2019-03-01T23:30:10.128Z,3.45
2019-03-01T23:32:38.172Z,3.46
2019-03-01T23:35:05.223Z,3.56
2019-03-01T23:37:31.602Z,3.56
2019-03-01T23:40:00.922Z,3.39
2019-03-01T23:42:26.270Z,3.30
2019-03-01T23:44:52.682Z,3.15
2019-03-01T23:47:18.824Z,3.20
2019-03-01T23:49:46.810Z,3.21
2019-03-01T23:52:12.976Z,3.15
2019-03-01T23:54:40.604Z,3.23
2019-03-01T23:57:08.014Z,3.29
2019-03-01T23:59:40.390Z,3.33
